Latest Weather Observations for Kiama

IDN60801

Issued at 9:33 pm EST Friday 1 July 2016 (issued every 30 minutes, with the page automatically refreshed every 10 minutes)

About weather observations | Map of weather stations | Latest weather observations for NSW | Other Formats
Station Details ID: 068242 Name: KIAMA (BOMBO HEADLAND) Lat: -34.65 Lon: 150.86 Height: 15.5 m
Data from the previous 72 hours. | See also: Recent months at Kiama
Date/Time
EST
Temp
°C
App
Temp
°C
Dew
Point
°C
Rel
Hum
%
Delta-T
°C
Wind Press
QNH
hPa
Press
MSL
hPa
Rain since
9am
mm
Dir  Spd
km/h
Gust
km/h
Spd
kts
Gust
kts
01/09:30pm 11.3 6.1 3.6 59 3.4 W 20 28 11 15 - - 0.0
01/09:00pm 11.3 5.7 3.6 59 3.4 W 22 32 12 17 - - 0.0
01/08:30pm 11.4 5.5 3.7 59 3.4 W 24 35 13 19 - - 0.0
01/08:00pm 11.6 6.0 3.6 58 3.5 W 22 33 12 18 - - 0.0
01/07:30pm 11.9 6.7 3.7 57 3.7 W 20 33 11 18 - - 0.0
01/07:00pm 12.1 6.9 3.6 56 3.8 W 20 28 11 15 - - 0.0
01/06:30pm 12.6 7.1 3.8 55 4.0 W 22 32 12 17 - - 0.0
01/06:00pm 12.8 6.9 3.7 54 4.1 W 24 32 13 17 - - 0.0
01/05:30pm 12.9 9.0 3.6 53 4.2 W 13 20 7 11 - - 0.0
01/05:00pm 13.5 8.9 3.6 51 4.5 W 17 24 9 13 - - 0.0
01/04:30pm 14.4 9.2 3.8 49 4.8 W 20 33 11 18 - - 0.0
01/04:00pm 15.2 11.4 4.0 47 5.2 WSW 13 20 7 11 - - 0.0
01/03:30pm 15.7 11.8 3.5 44 5.6 WSW 13 19 7 10 - - 0.0
01/03:00pm 16.0 11.7 3.1 42 5.9 WSW 15 26 8 14 - - 0.0
01/02:30pm 15.7 10.0 2.8 42 5.8 SW 22 33 12 18 - - 0.0
01/02:00pm 15.4 9.5 3.9 46 5.3 SW 24 37 13 20 - - 0.0
01/01:30pm 15.4 11.7 4.5 48 5.1 SW 13 22 7 12 - - 0.0
01/01:00pm 14.4 9.0 2.3 44 5.3 WSW 20 35 11 19 - - 0.0
01/12:30pm 14.7 9.1 3.2 46 5.2 WSW 22 37 12 20 - - 0.0
01/12:00pm 14.8 9.6 3.3 46 5.2 WSW 20 35 11 19 - - 0.0
01/11:30am 14.2 7.3 2.8 46 5.1 WSW 28 39 15 21 - - 0.0
01/11:00am 14.0 7.1 2.6 46 5.0 WSW 28 43 15 23 - - 0.0
01/10:49am 13.8 5.9 2.4 46 5.0 WSW 33 54 18 29 - - 0.0
01/10:30am 13.5 7.8 2.7 48 4.8 W 22 33 12 18 - - 0.0
01/10:00am 13.0 4.4 2.8 50 4.5 W 37 61 20 33 - - 0.0
01/09:30am 12.2 4.9 2.4 51 4.3 W 30 52 16 28 - - 0.0
01/09:00am 11.5 3.6 2.3 53 4.0 W 33 52 18 28 - - 0.0
01/08:31am 11.0 4.0 2.1 54 3.8 W 28 50 15 27 - - 0.0
01/08:30am 11.0 4.0 1.8 53 3.9 W 28 44 15 24 - - 0.0
01/08:06am 10.9 3.5 2.0 54 3.8 W 30 50 16 27 - - 0.0
01/08:00am 10.8 2.8 1.9 54 3.8 W 33 50 18 27 - - 0.0
01/07:30am 10.5 2.7 1.9 55 3.6 W 32 57 17 31 - - 0.0
01/07:06am 10.3 3.3 1.9 56 3.5 W 28 50 15 27 - - 0.0
01/07:00am 10.2 4.4 2.1 57 3.4 WNW 22 50 12 27 - - 0.0
01/06:30am 9.9 5.7 1.8 57 3.4 WNW 13 24 7 13 - - 0.0
01/06:00am 9.7 4.8 1.8 58 3.3 W 17 28 9 15 - - 0.0
01/05:30am 9.7 4.4 1.8 58 3.3 WNW 19 32 10 17 - - 0.0
01/05:00am 9.7 6.3 2.1 59 3.2 W 9 19 5 10 - - 0.0
01/04:30am 10.4 5.9 2.3 57 3.4 WNW 15 30 8 16 - - 0.0
01/04:00am 9.9 6.4 3.4 64 2.8 WNW 11 17 6 9 - - 0.0
01/03:30am 10.0 5.9 4.2 67 2.6 NNW 15 26 8 14 - - 0.0
01/03:00am 9.4 7.4 4.2 70 2.3 WSW 4 6 2 3 - - 0.0
01/02:30am 10.5 7.9 4.0 64 2.9 WNW 7 11 4 6 - - 0.0
01/02:00am 11.1 7.8 2.7 56 3.6 WNW 9 15 5 8 - - 0.0
01/01:30am 11.4 6.9 2.4 54 3.9 WNW 15 22 8 12 - - 0.0
01/01:00am 11.7 6.3 2.5 53 4.0 NW 20 28 11 15 - - 0.0
01/12:30am 11.6 6.3 1.8 51 4.2 NNW 19 26 10 14 - - 0.0
01/12:00am 11.9 7.3 1.8 50 4.3 WNW 15 24 8 13 - - 0.0
 
Date/Time
EST
Temp
°C
App
Temp
°C
Dew
Point
°C
Rel
Hum
%
Delta-T
°C
Wind Press
QNH
hPa
Press
MSL
hPa
Rain since
9am
mm
Dir  Spd
km/h
Gust
km/h
Spd
kts
Gust
kts
30/11:30pm 11.1 8.2 1.6 52 4.0 N 6 13 3 7 - - 0.0
30/11:00pm 11.3 7.8 1.3 50 4.2 N 9 17 5 9 - - 0.0
30/10:30pm 11.9 8.1 1.8 50 4.3 NNE 11 15 6 8 - - 0.0
30/10:00pm 12.0 7.5 1.9 50 4.3 NNE 15 22 8 12 - - 0.0
30/09:30pm 11.6 6.9 3.4 57 3.6 NNE 17 24 9 13 - - 0.0
30/09:00pm 9.4 6.9 3.6 67 2.5 N 6 15 3 8 - - 0.0
30/08:30pm 9.2 7.2 4.2 71 2.2 N 4 6 2 3 - - 0.0
30/08:00pm 9.0 6.5 3.8 70 2.3 W 6 7 3 4 - - 0.0
30/07:30pm 10.2 6.7 3.7 64 2.9 NNW 11 15 6 8 - - 0.0
30/07:00pm 10.9 7.5 3.9 62 3.1 NNW 11 15 6 8 - - 0.0
30/06:30pm 11.1 8.5 4.1 62 3.1 NW 7 9 4 5 - - 0.0
30/06:00pm 11.8 9.2 4.3 60 3.4 WNW 7 9 4 5 - - 0.0
30/05:30pm 12.2 9.5 3.7 56 3.8 NW 7 9 4 5 - - 0.0
30/05:00pm 12.7 9.9 3.4 53 4.1 NNW 7 9 4 5 - - 0.0
30/04:30pm 12.8 10.3 3.7 54 4.1 NW 6 6 3 3 - - 0.0
30/04:00pm 13.6 10.9 2.8 48 4.8 WNW 6 11 3 6 - - 0.0
30/03:30pm 14.1 10.4 2.4 45 5.2 W 11 17 6 9 - - 0.0
30/03:00pm 14.5 10.6 1.4 41 5.7 W 11 17 6 9 - - 0.0
30/02:30pm 15.3 12.0 -0.1 35 6.5 WNW 7 15 4 8 - - 0.0
30/02:00pm 15.9 12.2 0.1 34 6.7 WSW 9 13 5 7 - - 0.0
30/01:30pm 15.7 12.9 5.3 50 4.9 S 9 13 5 7 - - 0.0
30/01:00pm 15.6 12.4 4.9 49 5.0 SSE 11 13 6 7 - - 0.0
30/12:30pm 17.1 14.5 1.1 34 7.0 S 4 7 2 4 - - 0.0
30/12:00pm 17.9 14.9 1.8 34 7.2 NNE 7 13 4 7 - - 0.0
30/11:30am 17.3 13.7 0.9 33 7.2 N 9 11 5 6 - - 0.0
30/11:00am 17.2 14.2 2.0 36 6.8 NNE 7 9 4 5 - - 0.0
30/10:30am 15.7 13.1 4.1 46 5.4 N 7 9 4 5 - - 0.0
30/10:00am 13.7 10.8 4.8 55 4.1 N 9 13 5 7 - - 0.0
30/09:30am 13.0 10.5 4.7 57 3.8 N 7 11 4 6 - - 0.0
30/09:00am 11.6 9.2 4.1 60 3.4 NW 6 11 3 6 - - 0.0
30/08:30am 11.8 8.3 3.3 56 3.7 NNW 11 15 6 8 - - 0.0
30/08:00am 11.4 8.2 3.2 57 3.6 NNW 9 13 5 7 - - 0.0
30/07:30am 10.3 6.3 2.7 59 3.3 NW 13 15 7 8 - - 0.0
30/07:00am 10.9 5.7 2.7 57 3.5 NW 19 24 10 13 - - 0.0
30/06:30am 9.1 6.0 3.7 69 2.3 N 9 11 5 6 - - 0.0
30/06:00am 8.7 6.6 3.7 71 2.2 NNW 4 4 2 2 - - 0.0
30/05:30am 8.6 6.1 3.6 71 2.2 NNW 6 9 3 5 - - 0.0
30/05:00am 9.3 6.6 3.5 67 2.5 N 7 9 4 5 - - 0.0
30/04:30am 10.0 7.6 4.2 67 2.6 N 6 9 3 5 - - 0.0
30/04:00am 10.9 7.0 3.5 60 3.3 NNW 13 17 7 9 - - 0.0
30/03:30am 10.4 6.2 3.9 64 2.9 NNW 15 20 8 11 - - 0.0
30/03:00am 9.1 6.7 4.5 73 2.0 NNW 6 17 3 9 - - 0.0
30/02:30am 9.2 6.8 4.2 71 2.2 NNW 6 9 3 5 - - 0.0
30/02:00am 10.2 7.7 4.6 68 2.5 NNW 7 9 4 5 - - 0.0
30/01:30am 11.4 7.4 4.8 64 3.0 NW 15 17 8 9 - - 0.0
30/01:00am 11.5 7.9 4.9 64 3.0 NW 13 15 7 8 - - 0.0
30/12:30am 11.4 8.2 5.1 65 2.9 WNW 11 13 6 7 - - 0.0
30/12:00am 11.8 8.2 5.2 64 3.0 WNW 13 17 7 9 - - 0.0
 
Date/Time
EST
Temp
°C
App
Temp
°C
Dew
Point
°C
Rel
Hum
%
Delta-T
°C
Wind Press
QNH
hPa
Press
MSL
hPa
Rain since
9am
mm
Dir  Spd
km/h
Gust
km/h
Spd
kts
Gust
kts
29/11:30pm 11.7 7.8 5.3 65 2.9 NW 15 17 8 9 - - 0.0
29/11:00pm 11.0 7.5 5.3 68 2.6 WNW 13 15 7 8 - - 0.0
29/10:30pm 10.5 7.0 5.5 71 2.3 WNW 13 15 7 8 - - 0.0
29/10:00pm 11.0 7.4 5.1 67 2.7 WNW 13 15 7 8 - - 0.0
29/09:30pm 11.2 7.6 5.1 66 2.8 WNW 13 15 7 8 - - 0.0
29/09:00pm 11.5 7.9 5.2 65 2.9 WNW 13 13 7 7 - - 0.0
29/08:30pm 10.9 7.3 5.2 68 2.6 WNW 13 13 7 7 - - 0.0
29/08:00pm 11.5 8.0 5.4 66 2.8 WNW 13 17 7 9 - - 0.0
29/07:30pm 11.9 8.7 5.3 64 3.0 WNW 11 13 6 7 - - 0.0
29/07:00pm 11.8 8.7 5.7 66 2.8 W 11 13 6 7 - - 0.0
29/06:30pm 12.1 9.0 5.7 65 3.0 W 11 13 6 7 - - 0.0
29/06:00pm 12.7 9.6 5.6 62 3.3 W 11 11 6 6 - - 0.0
29/05:30pm 13.4 11.2 5.1 57 3.9 WSW 6 7 3 4 - - 0.0
29/05:00pm 14.1 12.3 5.2 55 4.2 SW 4 6 2 3 - - 0.0
29/04:30pm 15.9 13.5 5.2 49 5.1 SSE 7 13 4 7 - - 0.0
29/04:00pm 16.1 13.3 5.1 48 5.2 SSE 9 15 5 8 - - 0.0
29/03:30pm 16.3 12.9 5.9 50 5.0 SSE 13 17 7 9 - - 0.0
29/03:00pm 16.4 12.3 6.2 51 5.0 SSE 17 20 9 11 - - 0.0
29/02:30pm 16.5 12.8 6.1 50 5.1 S 15 20 8 11 - - 0.0
29/02:00pm 16.7 13.0 6.5 51 5.0 S 15 22 8 12 - - 0.0
29/01:30pm 16.5 12.4 6.1 50 5.1 S 17 24 9 13 - - 0.0
29/01:00pm 16.3 11.5 4.7 46 5.5 SSE 19 22 10 12 - - 0.0
29/12:30pm 16.6 11.8 4.9 46 5.6 S 19 24 10 13 - - 0.0
29/12:00pm 16.6 12.3 5.3 47 5.4 S 17 28 9 15 - - 0.0
29/11:30am 16.4 11.7 6.2 51 5.0 S 20 24 11 13 - - 0.0
29/11:00am 17.0 15.4 4.7 44 5.8 ENE 2 7 1 4 - - 0.0
29/10:30am 16.6 15.4 4.6 45 5.7 CALM 0 0 0 0 - - 0.0
29/10:00am 16.7 15.1 4.4 44 5.8 WNW 2 6 1 3 - - 0.0
29/09:30am 14.8 11.7 3.6 47 5.1 WNW 9 15 5 8 - - 0.0
29/09:00am 13.7 10.5 3.2 49 4.7 WNW 9 13 5 7 - - 0.0
29/08:30am 12.5 9.9 3.2 53 4.1 WNW 6 9 3 5 - - 0.0
29/08:00am 11.3 8.5 2.9 56 3.7 W 7 11 4 6 - - 0.0
29/07:30am 10.6 7.3 2.7 58 3.4 WNW 9 13 5 7 - - 0.0
29/07:00am 10.3 6.7 2.9 60 3.2 WNW 11 17 6 9 - - 0.0
29/06:30am 10.2 6.2 2.8 60 3.2 WNW 13 19 7 10 - - 0.0
29/06:00am 10.0 5.6 2.8 61 3.1 W 15 19 8 10 - - 0.0
29/05:30am 10.1 6.1 2.9 61 3.1 WNW 13 19 7 10 - - 0.0
29/05:00am 9.9 5.6 3.0 62 3.0 W 15 20 8 11 - - 0.0
29/04:30am 10.1 6.1 2.7 60 3.2 WNW 13 19 7 10 - - 0.0
29/04:00am 10.0 5.6 2.8 61 3.1 W 15 19 8 10 - - 0.0
29/03:30am 10.1 6.1 2.9 61 3.1 WNW 13 19 7 10 - - 0.0
29/03:00am 9.9 5.9 3.0 62 3.0 WNW 13 19 7 10 - - 0.0
29/02:30am 10.1 6.1 2.9 61 3.1 WNW 13 20 7 11 - - 0.0
29/02:00am 10.0 5.6 2.8 61 3.1 WNW 15 20 8 11 - - 0.0
29/01:30am 10.1 5.4 2.9 61 3.1 WNW 17 24 9 13 - - 0.0
29/01:00am 10.0 6.0 3.1 62 3.0 WNW 13 20 7 11 - - 0.0
29/12:30am 9.9 5.9 3.0 62 3.0 WNW 13 19 7 10 - - 0.0
29/12:00am 10.3 6.0 3.1 61 3.1 WNW 15 19 8 10 - - 0.0
 
Date/Time
EST
Temp
°C
App
Temp
°C
Dew
Point
°C
Rel
Hum
%
Delta-T
°C
Wind Press
QNH
hPa
Press
MSL
hPa
Rain since
9am
mm
Dir  Spd
km/h
Gust
km/h
Spd
kts
Gust
kts
28/11:30pm 10.3 6.0 3.1 61 3.1 WNW 15 22 8 12 - - 0.0
28/11:00pm 10.4 5.7 3.2 61 3.1 W 17 22 9 12 - - 0.0
28/10:30pm 10.2 5.9 3.3 62 3.0 W 15 20 8 11 - - 0.0
28/10:00pm 10.4 6.1 3.2 61 3.1 W 15 20 8 11 - - 0.0

Other Formats:

Comma delimited format used in spreadsheet applications
http://www.bom.gov.au/fwo/IDN60801/IDN60801.95749.axf

JavaScript Object Notation format (JSON) in row-major order
http://www.bom.gov.au/fwo/IDN60801/IDN60801.95749.json